Time;durP1;ratioP1;P1;durP2;ratioP2;P2;SDS_P1;SDS_P2;PMS_P1;PMS_P2;Temp;Humidity;BMP_temperature;BMP_pressure;BME280_temperature;BME280_humidity;BME280_pressure;Samples;Min_cycle;Max_cycle;Signal;HPM_P1;HPM_P2
2024/03/24 00:02:03;;;;;;;7.95;4.57;;;24.90;99.90;;;;;;5051784;28;20501;-43
2024/03/24 00:04:29;;;;;;;11.07;4.55;;;24.90;99.90;;;;;;5051924;28;20025;-43
2024/03/24 00:06:55;;;;;;;10.80;4.80;;;24.90;99.90;;;;;;5055948;28;20021;-43
2024/03/24 00:09:21;;;;;;;11.52;4.65;;;24.90;99.90;;;;;;5055905;28;20024;-42
2024/03/24 00:11:46;;;;;;;9.02;4.45;;;24.90;99.90;;;;;;5056278;28;20056;-43
2024/03/24 00:14:12;;;;;;;12.93;4.68;;;24.90;99.90;;;;;;5055859;28;20029;-43
2024/03/24 00:16:38;;;;;;;11.07;4.07;;;24.90;99.90;;;;;;5055750;28;20520;-43
2024/03/24 00:19:04;;;;;;;16.27;4.75;;;24.80;99.90;;;;;;5055695;28;20045;-43
2024/03/24 00:21:33;;;;;;;10.30;4.15;;;24.80;99.90;;;;;;5037835;28;20473;-43
2024/03/24 00:24:01;;;;;;;12.13;4.25;;;24.80;99.90;;;;;;5055781;28;20435;-43
2024/03/24 00:26:27;;;;;;;9.32;3.92;;;24.80;99.90;;;;;;5055835;28;20017;-43
2024/03/24 00:28:53;;;;;;;10.43;4.63;;;24.80;99.90;;;;;;5055686;28;20033;-43
2024/03/24 00:31:19;;;;;;;11.18;4.00;;;24.80;99.90;;;;;;5055708;28;20032;-43
2024/03/24 00:33:45;;;;;;;12.23;4.38;;;24.80;99.90;;;;;;5037741;28;20021;-42
2024/03/24 00:36:11;;;;;;;11.02;5.03;;;24.80;99.90;;;;;;5055381;28;20032;-43
2024/03/24 00:38:36;;;;;;;11.23;4.38;;;24.80;99.90;;;;;;5037543;28;20367;-43
2024/03/24 00:41:02;;;;;;;10.57;4.80;;;24.80;99.90;;;;;;5055390;28;20032;-43
2024/03/24 00:43:28;;;;;;;12.18;4.65;;;24.80;99.90;;;;;;5055454;28;20040;-43
2024/03/24 00:45:54;;;;;;;12.90;4.97;;;24.70;99.90;;;;;;5055213;28;20485;-43
2024/03/24 00:48:20;;;;;;;11.65;4.70;;;24.80;99.90;;;;;;5055429;28;20032;-43
2024/03/24 00:50:46;;;;;;;9.15;4.90;;;24.70;99.90;;;;;;5037543;28;20354;-42
2024/03/24 00:53:12;;;;;;;13.35;5.68;;;24.70;99.90;;;;;;5055112;28;20025;-42
2024/03/24 00:55:38;;;;;;;11.55;3.85;;;24.70;99.90;;;;;;5037104;28;20515;-43
2024/03/24 00:58:03;;;;;;;9.73;4.15;;;24.70;99.90;;;;;;5055118;28;20037;-42
2024/03/24 01:00:29;;;;;;;7.80;4.00;;;24.70;99.90;;;;;;5037691;28;20079;-42
2024/03/24 01:02:55;;;;;;;12.10;3.95;;;24.70;99.90;;;;;;5054786;28;20044;-43
2024/03/24 01:05:22;;;;;;;11.88;4.43;;;24.70;99.90;;;;;;5055249;28;20021;-43
2024/03/24 01:07:49;;;;;;;9.77;3.60;;;24.70;99.90;;;;;;5037425;28;20021;-43
2024/03/24 01:10:15;;;;;;;9.23;3.85;;;24.70;99.90;;;;;;5055027;28;20448;-43
2024/03/24 01:12:49;;;;;;;12.88;4.35;;;24.70;99.90;;;;;;5054872;28;20029;-42
2024/03/24 01:15:15;;;;;;;10.45;3.85;;;24.70;99.90;;;;;;5054720;28;20025;-42
2024/03/24 01:17:47;;;;;;;14.10;4.35;;;24.70;99.90;;;;;;5054253;28;20385;-42
2024/03/24 01:20:14;;;;;;;10.77;4.47;;;24.70;99.90;;;;;;5054562;28;20103;-42
2024/03/24 01:22:40;;;;;;;12.25;4.03;;;24.70;99.90;;;;;;5054359;28;20469;-42
2024/03/24 01:25:07;;;;;;;9.65;4.38;;;24.70;99.90;;;;;;5054502;28;20048;-42
2024/03/24 01:27:33;;;;;;;13.93;3.47;;;24.70;99.90;;;;;;5054259;28;20032;-43
2024/03/24 01:29:59;;;;;;;12.35;4.93;;;24.60;99.90;;;;;;5054432;28;20373;-43
2024/03/24 01:32:25;;;;;;;11.93;4.00;;;24.70;99.90;;;;;;5054330;28;20021;-42
2024/03/24 01:34:51;;;;;;;12.68;4.25;;;24.60;99.90;;;;;;5054434;28;20405;-42
2024/03/24 01:37:17;;;;;;;12.02;5.35;;;24.60;99.90;;;;;;5054241;28;20028;-43
2024/03/24 01:39:46;;;;;;;12.13;4.40;;;24.60;99.90;;;;;;5054222;28;20033;-42
2024/03/24 01:42:13;;;;;;;12.07;3.70;;;24.60;99.90;;;;;;5036373;28;20358;-42
2024/03/24 01:44:39;;;;;;;12.27;4.57;;;24.60;99.90;;;;;;5054081;28;20410;-42
2024/03/24 01:47:05;;;;;;;9.70;3.85;;;24.60;99.90;;;;;;5036816;28;20048;-42
2024/03/24 01:49:31;;;;;;;13.10;4.40;;;24.60;99.90;;;;;;5054274;28;20124;-42
2024/03/24 01:51:57;;;;;;;10.60;4.30;;;24.50;99.90;;;;;;5054093;28;20056;-42
2024/03/24 01:54:25;;;;;;;12.43;4.20;;;24.50;99.90;;;;;;5053965;28;20045;-43
2024/03/24 01:56:51;;;;;;;12.55;3.95;;;24.50;99.90;;;;;;5054015;28;20029;-43
2024/03/24 01:59:17;;;;;;;12.15;3.70;;;24.50;99.90;;;;;;5035930;28;20106;-42
2024/03/24 02:01:43;;;;;;;16.45;4.60;;;24.50;99.90;;;;;;5054247;28;20045;-42
2024/03/24 02:04:09;;;;;;;12.57;3.83;;;24.50;99.90;;;;;;5053740;28;20033;-42
2024/03/24 02:06:35;;;;;;;10.38;3.75;;;24.50;99.90;;;;;;5054036;28;20075;-42
2024/03/24 02:09:02;;;;;;;12.63;3.92;;;24.50;99.90;;;;;;5053679;28;20036;-41
2024/03/24 02:11:30;;;;;;;13.07;4.57;;;24.50;99.90;;;;;;5053628;28;20417;-42
2024/03/24 02:13:59;;;;;;;10.65;3.72;;;24.40;99.90;;;;;;5053524;28;20025;-42
2024/03/24 02:16:26;;;;;;;10.55;4.13;;;24.50;99.90;;;;;;5053617;28;20032;-42
2024/03/24 02:18:51;;;;;;;12.52;4.10;;;24.50;99.90;;;;;;5053409;28;20037;-42
2024/03/24 02:21:18;;;;;;;11.00;4.13;;;24.40;99.90;;;;;;5053465;28;20025;-42
2024/03/24 02:23:43;;;;;;;15.02;4.72;;;24.40;99.90;;;;;;5035477;28;20025;-43
2024/03/24 02:26:09;;;;;;;9.55;3.30;;;24.40;99.90;;;;;;5053549;28;20028;-43
2024/03/24 02:28:35;;;;;;;13.40;3.75;;;24.40;99.90;;;;;;5052913;28;20029;-43
2024/03/24 02:31:02;;;;;;;12.90;4.50;;;24.40;99.90;;;;;;5035624;28;20104;-43
2024/03/24 02:33:28;;;;;;;7.80;3.33;;;24.40;99.90;;;;;;5035371;28;20553;-42
2024/03/24 02:35:53;;;;;;;9.35;3.65;;;24.40;99.90;;;;;;5035519;28;20104;-43
2024/03/24 02:38:19;;;;;;;9.05;4.03;;;24.40;99.90;;;;;;5053481;28;20087;-43
2024/03/24 02:40:48;;;;;;;10.68;3.90;;;24.40;99.90;;;;;;5053040;28;20091;-43
2024/03/24 02:43:14;;;;;;;10.13;3.50;;;24.40;99.90;;;;;;5053009;28;20074;-43
2024/03/24 02:45:41;;;;;;;8.68;3.90;;;24.40;99.90;;;;;;5053378;28;20021;-42
2024/03/24 02:48:07;;;;;;;12.73;4.23;;;24.30;99.90;;;;;;5053231;28;20028;-42
2024/03/24 02:50:34;;;;;;;11.20;3.97;;;24.30;99.90;;;;;;5053065;28;20075;-42
2024/03/24 02:53:00;;;;;;;11.90;3.42;;;24.40;99.90;;;;;;5052894;28;20047;-42
2024/03/24 02:55:25;;;;;;;10.70;3.25;;;24.30;99.90;;;;;;5052833;28;20428;-42
2024/03/24 02:57:55;;;;;;;14.10;3.72;;;24.30;99.90;;;;;;5052799;28;20021;-42
2024/03/24 03:00:21;;;;;;;12.45;3.55;;;24.30;99.90;;;;;;5053360;28;20060;-41
2024/03/24 03:02:47;;;;;;;11.07;3.30;;;24.30;99.90;;;;;;5034663;28;20135;-41
2024/03/24 03:05:13;;;;;;;9.65;3.35;;;24.30;99.90;;;;;;5052718;28;20100;-43
2024/03/24 03:07:39;;;;;;;12.10;3.95;;;24.30;99.90;;;;;;5052912;28;20423;-43
2024/03/24 03:10:08;;;;;;;11.27;3.30;;;24.30;99.90;;;;;;5052694;28;20025;-42
2024/03/24 03:12:36;;;;;;;13.05;4.10;;;24.30;99.90;;;;;;5052656;28;20037;-42
2024/03/24 03:15:04;;;;;;;9.98;3.67;;;24.30;99.90;;;;;;5052684;28;20032;-42
2024/03/24 03:17:30;;;;;;;7.07;3.35;;;24.30;99.90;;;;;;5052477;28;20031;-42
2024/03/24 03:19:56;;;;;;;8.60;3.30;;;24.30;99.90;;;;;;5052317;28;20578;-42
2024/03/24 03:22:22;;;;;;;12.10;3.50;;;24.30;99.90;;;;;;5052513;28;20028;-43
2024/03/24 03:24:48;;;;;;;8.75;3.25;;;24.30;99.90;;;;;;5052469;28;20104;-42
2024/03/24 03:27:14;;;;;;;8.57;3.42;;;24.30;99.90;;;;;;5052553;28;20020;-42
2024/03/24 03:29:40;;;;;;;8.20;3.25;;;24.30;99.90;;;;;;5052622;28;20017;-42
2024/03/24 03:32:06;;;;;;;8.68;3.72;;;24.30;99.90;;;;;;5052226;28;20452;-42
2024/03/24 03:39:43;;;;;;;11.27;3.63;;;24.30;99.90;;;;;;5292439;22;20407;-48
2024/03/24 03:42:08;;;;;;;15.25;4.15;;;24.30;99.90;;;;;;5053149;28;20028;-47
2024/03/24 03:44:34;;;;;;;8.20;2.92;;;24.20;99.90;;;;;;5053205;28;20021;-47
2024/03/24 03:47:00;;;;;;;11.77;4.38;;;24.20;99.90;;;;;;5053185;28;20096;-48
2024/03/24 03:49:26;;;;;;;10.93;3.42;;;24.20;99.90;;;;;;5053071;28;20366;-48
2024/03/24 03:51:56;;;;;;;6.25;2.70;;;24.20;99.90;;;;;;5053166;28;20029;-47
2024/03/24 03:54:22;;;;;;;6.70;2.92;;;24.20;99.90;;;;;;5053189;28;20424;-47
2024/03/24 03:56:48;;;;;;;8.73;3.45;;;24.20;99.90;;;;;;5053322;28;20017;-47
2024/03/24 03:59:14;;;;;;;11.20;3.97;;;24.20;99.90;;;;;;5053283;28;20044;-47
2024/03/24 04:01:41;;;;;;;8.85;2.67;;;24.20;99.90;;;;;;5052981;28;20017;-47
2024/03/24 04:04:08;;;;;;;8.38;2.65;;;24.20;99.90;;;;;;5053002;28;20112;-48
2024/03/24 04:06:34;;;;;;;7.35;2.95;;;24.20;99.90;;;;;;5053032;28;20017;-48
2024/03/24 04:09:00;;;;;;;9.82;3.22;;;24.20;99.90;;;;;;5053040;28;20167;-48
2024/03/24 04:11:26;;;;;;;8.50;3.17;;;24.20;99.90;;;;;;5052944;28;20043;-48
2024/03/24 04:13:52;;;;;;;9.05;3.20;;;24.20;99.90;;;;;;5052838;28;20123;-49
2024/03/24 04:16:17;;;;;;;11.50;3.83;;;24.20;99.90;;;;;;5052845;28;20021;-48
2024/03/24 04:18:47;;;;;;;8.80;3.58;;;24.20;99.90;;;;;;5052658;28;20053;-48
2024/03/24 04:21:13;;;;;;;9.50;3.10;;;24.20;99.90;;;;;;5052730;28;20542;-48
2024/03/24 04:23:39;;;;;;;9.80;2.88;;;24.20;99.90;;;;;;5052791;28;20023;-48
2024/03/24 04:26:05;;;;;;;8.80;3.53;;;24.20;99.90;;;;;;5052970;28;20033;-48
2024/03/24 04:28:31;;;;;;;7.13;3.17;;;24.20;99.90;;;;;;5034855;28;20021;-48
2024/03/24 04:30:59;;;;;;;6.47;3.03;;;24.20;99.90;;;;;;5053033;28;20063;-48
2024/03/24 04:33:26;;;;;;;8.73;3.22;;;24.20;99.90;;;;;;5052612;28;20027;-48
2024/03/24 04:35:53;;;;;;;10.82;4.10;;;24.20;99.90;;;;;;5052619;28;20052;-48
2024/03/24 04:38:19;;;;;;;7.22;3.72;;;24.20;99.90;;;;;;5046495;23;20037;-43
2024/03/24 04:40:45;;;;;;;11.15;3.65;;;24.20;99.90;;;;;;5052991;28;20071;-43
2024/03/24 04:43:13;;;;;;;8.57;3.13;;;24.10;99.90;;;;;;5053011;28;20031;-43
2024/03/24 04:45:39;;;;;;;;;;;24.20;99.90;;;;;;5053527;28;20032;-42
2024/03/24 04:48:06;;;;;;;9.20;2.72;;;24.20;99.90;;;;;;5034809;28;19928;-41
2024/03/24 04:50:32;;;;;;;14.32;3.88;;;24.20;99.90;;;;;;5052446;28;20358;-41
2024/03/24 04:52:58;;;;;;;9.13;3.25;;;24.20;99.90;;;;;;5056131;28;20033;-41
2024/03/24 04:55:24;;;;;;;8.15;3.53;;;24.10;99.90;;;;;;5056143;28;20440;-42
2024/03/24 04:57:50;;;;;;;13.38;3.83;;;24.10;99.90;;;;;;5056046;28;20036;-41
2024/03/24 05:00:16;;;;;;;11.35;3.50;;;24.10;99.90;;;;;;5056223;28;20037;-41
2024/03/24 05:02:42;;;;;;;9.70;3.85;;;24.10;99.90;;;;;;5056326;28;20021;-41
2024/03/24 05:05:10;;;;;;;12.35;3.80;;;24.10;99.90;;;;;;5055892;28;20029;-41
2024/03/24 05:07:35;;;;;;;;;;;24.10;99.90;;;;;;5056448;28;20017;-41
2024/03/24 05:10:01;;;;;;;7.82;3.45;;;24.10;99.90;;;;;;5056164;28;19911;-42
2024/03/24 05:12:27;;;;;;;9.27;4.05;;;24.10;99.90;;;;;;5055863;28;20021;-42
2024/03/24 05:14:53;;;;;;;8.77;3.80;;;24.10;99.90;;;;;;5037890;28;20036;-42
2024/03/24 05:17:19;;;;;;;13.23;4.57;;;24.10;99.90;;;;;;5037881;28;20119;-41
2024/03/24 05:19:44;;;;;;;12.23;4.13;;;24.00;99.90;;;;;;5038089;28;20112;-42
2024/03/24 05:22:10;;;;;;;12.27;3.97;;;24.00;99.90;;;;;;5055852;28;20032;-42
2024/03/24 05:24:36;;;;;;;8.43;3.40;;;24.10;99.90;;;;;;5055697;28;20100;-42
2024/03/24 05:27:05;;;;;;;10.93;3.65;;;24.10;99.90;;;;;;5055696;28;20021;-42
2024/03/24 05:29:31;;;;;;;10.60;3.78;;;24.00;99.90;;;;;;5038474;28;20028;-41
2024/03/24 05:31:59;;;;;;;10.00;3.97;;;24.10;99.90;;;;;;5055552;28;20025;-43
2024/03/24 05:34:25;;;;;;;9.70;3.72;;;24.10;99.90;;;;;;5055377;28;20032;-42
2024/03/24 05:36:52;;;;;;;10.02;3.85;;;24.00;99.90;;;;;;5055629;28;20054;-42
2024/03/24 05:39:17;;;;;;;9.82;3.67;;;24.00;99.90;;;;;;5055170;28;20492;-42
2024/03/24 05:41:50;;;;;;;13.77;4.60;;;24.00;99.90;;;;;;5055501;28;20023;-41
2024/03/24 05:44:18;;;;;;;11.15;3.42;;;24.00;99.90;;;;;;5055510;28;20048;-42
2024/03/24 05:46:44;;;;;;;9.88;3.88;;;24.00;99.90;;;;;;5055157;28;20028;-42
2024/03/24 05:49:11;;;;;;;8.90;3.30;;;24.00;99.90;;;;;;5055273;28;20025;-42
2024/03/24 05:51:40;;;;;;;8.07;2.90;;;24.00;99.90;;;;;;5055249;28;20041;-42
2024/03/24 05:54:06;;;;;;;10.02;4.20;;;24.00;99.90;;;;;;5038118;28;20035;-42
2024/03/24 05:56:32;;;;;;;10.02;3.60;;;24.00;99.90;;;;;;5037381;28;20027;-42
2024/03/24 05:58:58;;;;;;;8.70;3.33;;;24.00;99.90;;;;;;5055170;28;20041;-42
2024/03/24 06:01:25;;;;;;;11.23;4.85;;;24.00;99.90;;;;;;5053590;28;20230;-42
2024/03/24 06:03:51;;;;;;;9.32;3.58;;;24.00;99.90;;;;;;5035806;28;20028;-42
2024/03/24 06:06:20;;;;;;;9.65;3.45;;;24.00;99.90;;;;;;5054916;28;20532;-42
2024/03/24 06:08:45;;;;;;;12.27;4.22;;;24.00;99.90;;;;;;5055141;28;20029;-42
2024/03/24 06:11:11;;;;;;;8.43;3.55;;;24.00;99.90;;;;;;5053933;28;20074;-42
2024/03/24 06:13:37;;;;;;;7.05;3.40;;;24.00;99.90;;;;;;5054907;28;20025;-42
2024/03/24 06:16:03;;;;;;;9.73;3.13;;;24.00;99.90;;;;;;5036905;28;20361;-41
2024/03/24 06:18:29;;;;;;;9.75;3.72;;;24.00;99.90;;;;;;5036521;28;20033;-42
2024/03/24 06:20:56;;;;;;;9.05;3.60;;;23.90;99.90;;;;;;5054781;28;20017;-42
2024/03/24 06:23:23;;;;;;;10.48;3.22;;;24.00;99.90;;;;;;5054601;28;20021;-42
2024/03/24 06:25:49;;;;;;;12.40;4.05;;;24.00;99.90;;;;;;5036539;28;20032;-42
2024/03/24 06:28:15;;;;;;;11.02;3.78;;;23.90;99.90;;;;;;5036516;28;20151;-42
2024/03/24 06:30:41;;;;;;;9.90;3.95;;;23.90;99.90;;;;;;5054407;28;20164;-41
2024/03/24 06:33:07;;;;;;;10.27;3.67;;;24.00;99.90;;;;;;5054480;28;20017;-42
2024/03/24 06:35:33;;;;;;;10.93;3.55;;;23.90;99.90;;;;;;5054558;28;20021;-42
2024/03/24 06:37:59;;;;;;;10.13;3.58;;;24.00;99.90;;;;;;5054401;28;20033;-42
2024/03/24 06:40:27;;;;;;;7.15;3.22;;;23.90;99.90;;;;;;5054196;28;20461;-42
2024/03/24 06:43:06;;;;;;;7.68;3.05;;;24.00;99.90;;;;;;5036763;28;20021;-42
2024/03/24 06:45:36;;;;;;;8.43;3.08;;;23.90;99.90;;;;;;5054267;28;20025;-42
2024/03/24 06:48:04;;;;;;;10.40;3.80;;;24.00;99.90;;;;;;5054073;28;20021;-42
2024/03/24 06:50:31;;;;;;;8.43;3.70;;;24.00;99.90;;;;;;5054168;28;20025;-42
2024/03/24 06:52:58;;;;;;;10.38;3.72;;;23.90;99.90;;;;;;5036021;28;20044;-42
2024/03/24 06:55:25;;;;;;;9.00;3.60;;;23.90;99.90;;;;;;5053987;28;20091;-42
2024/03/24 06:57:51;;;;;;;8.18;3.40;;;23.90;99.90;;;;;;5053988;28;20025;-42
2024/03/24 07:00:18;;;;;;;8.40;2.83;;;23.90;99.90;;;;;;5054033;28;20032;-43
2024/03/24 07:02:45;;;;;;;7.03;3.15;;;23.90;99.90;;;;;;5053943;28;20033;-42
2024/03/24 07:05:11;;;;;;;8.05;3.60;;;23.90;99.90;;;;;;5035910;28;20056;-42
2024/03/24 07:07:36;;;;;;;9.52;3.28;;;23.90;99.90;;;;;;5053719;28;20488;-42
2024/03/24 07:10:06;;;;;;;7.13;3.50;;;23.90;99.90;;;;;;5053632;28;20384;-42
2024/03/24 07:12:33;;;;;;;9.18;4.13;;;23.90;99.90;;;;;;5036094;28;20033;-42
2024/03/24 07:14:59;;;;;;;8.55;3.20;;;23.90;99.90;;;;;;5053329;28;20484;-42
2024/03/24 07:17:25;;;;;;;10.82;3.70;;;23.90;99.90;;;;;;5053834;28;20059;-42
2024/03/24 07:19:51;;;;;;;8.48;3.05;;;23.90;99.90;;;;;;5053522;28;20154;-42
2024/03/24 07:22:17;;;;;;;10.75;3.38;;;23.90;99.90;;;;;;5053652;28;20021;-43
2024/03/24 07:24:43;;;;;;;7.82;3.28;;;23.90;99.90;;;;;;5035418;28;20036;-42
2024/03/24 07:27:08;;;;;;;8.10;3.28;;;23.90;99.90;;;;;;5053429;28;20032;-43
2024/03/24 07:29:34;;;;;;;8.90;3.45;;;23.90;99.90;;;;;;5053645;28;20357;-44
2024/03/24 07:32:00;;;;;;;8.18;4.38;;;23.90;99.90;;;;;;5053507;28;20026;-42
2024/03/24 07:34:26;;;;;;;10.05;3.47;;;23.90;99.90;;;;;;5053574;28;20112;-42
2024/03/24 07:36:52;;;;;;;5.90;3.33;;;23.90;99.90;;;;;;5053232;28;20025;-42
2024/03/24 07:39:18;;;;;;;10.20;3.42;;;23.90;99.90;;;;;;5053067;28;20048;-42
2024/03/24 07:41:44;;;;;;;13.18;4.38;;;23.90;99.90;;;;;;5053174;28;20032;-42
2024/03/24 07:44:09;;;;;;;9.50;4.38;;;23.90;99.90;;;;;;5053153;28;20033;-43
2024/03/24 07:46:35;;;;;;;5.60;3.10;;;23.90;99.90;;;;;;5035609;28;20530;-43
2024/03/24 07:49:01;;;;;;;7.97;3.45;;;23.90;99.90;;;;;;5053245;28;20060;-43
2024/03/24 07:51:27;;;;;;;6.63;3.35;;;24.00;99.90;;;;;;5053279;28;20477;-44
2024/03/24 07:53:53;;;;;;;7.40;3.03;;;24.00;99.90;;;;;;5053119;28;20104;-42
2024/03/24 07:56:19;;;;;;;6.32;3.22;;;23.90;99.90;;;;;;5053059;28;20021;-41
2024/03/24 07:58:44;;;;;;;8.43;3.85;;;23.90;99.90;;;;;;5053132;28;20477;-42
2024/03/24 08:01:10;;;;;;;7.00;3.13;;;23.90;99.90;;;;;;5052959;28;20104;-42
2024/03/24 08:03:36;;;;;;;7.68;3.65;;;23.90;99.90;;;;;;5053104;28;20037;-42
2024/03/24 08:06:02;;;;;;;8.75;3.83;;;23.90;99.90;;;;;;5053117;28;20118;-42
2024/03/24 08:08:28;;;;;;;6.38;3.50;;;23.90;99.90;;;;;;5052905;28;20104;-42
2024/03/24 08:10:54;;;;;;;9.85;3.60;;;24.00;99.90;;;;;;5052962;28;20033;-42
2024/03/24 08:13:20;;;;;;;8.20;3.70;;;23.90;99.90;;;;;;5053021;28;20028;-42
2024/03/24 08:15:45;;;;;;;8.40;4.55;;;24.00;99.90;;;;;;5052882;28;20033;-42
2024/03/24 08:18:14;;;;;;;8.93;4.80;;;23.90;99.90;;;;;;5052652;28;20037;-42
2024/03/24 08:20:47;;;;;;;7.78;3.80;;;24.00;99.90;;;;;;5052860;28;20159;-41
2024/03/24 08:23:14;;;;;;;7.70;4.20;;;23.90;99.90;;;;;;5035156;28;20115;-42
2024/03/24 08:25:41;;;;;;;9.80;4.28;;;24.00;99.90;;;;;;5053202;28;20151;-42
2024/03/24 08:28:07;;;;;;;11.30;5.43;;;24.00;99.90;;;;;;5056678;28;20473;-42
2024/03/24 08:30:34;;;;;;;10.10;5.00;;;24.00;99.90;;;;;;5056726;28;20397;-43
2024/03/24 08:33:00;;;;;;;8.75;4.28;;;24.00;99.90;;;;;;5056614;28;20029;-43
2024/03/24 08:35:25;;;;;;;9.30;4.57;;;24.00;99.90;;;;;;5056518;28;20037;-43
2024/03/24 08:37:52;;;;;;;16.50;5.75;;;24.00;99.90;;;;;;5056380;28;20025;-42
2024/03/24 08:40:18;;;;;;;13.30;5.60;;;24.00;99.90;;;;;;5056264;28;20397;-41
2024/03/24 08:42:46;;;;;;;11.00;5.22;;;24.00;99.90;;;;;;5056430;28;20511;-42
2024/03/24 08:45:12;;;;;;;9.27;4.93;;;24.00;99.90;;;;;;5056417;28;20033;-42
2024/03/24 08:47:38;;;;;;;9.82;5.47;;;24.00;99.90;;;;;;5056610;28;20031;-42
2024/03/24 08:50:04;;;;;;;9.88;4.95;;;24.00;99.90;;;;;;5038511;28;20032;-43
2024/03/24 08:52:30;;;;;;;10.02;5.47;;;24.00;99.90;;;;;;5056416;28;20035;-42
2024/03/24 08:54:56;;;;;;;8.80;5.05;;;24.00;99.90;;;;;;5038280;28;20021;-43
2024/03/24 08:57:22;;;;;;;11.95;5.88;;;24.00;99.90;;;;;;5056366;28;20377;-42
2024/03/24 08:59:48;;;;;;;7.60;4.88;;;24.00;99.90;;;;;;5038435;28;20098;-45
2024/03/24 09:02:17;;;;;;;10.48;4.60;;;24.00;99.90;;;;;;5038325;28;20032;-43
2024/03/24 09:04:43;;;;;;;9.73;4.43;;;24.00;99.90;;;;;;5056164;28;20021;-43
2024/03/24 09:07:09;;;;;;;7.28;4.28;;;23.90;99.90;;;;;;5056159;28;20025;-41
2024/03/24 09:09:34;;;;;;;8.45;3.83;;;24.00;99.90;;;;;;5056024;28;20025;-42
2024/03/24 09:12:00;;;;;;;9.65;4.53;;;24.00;99.90;;;;;;5055838;28;20338;-41
2024/03/24 09:14:26;;;;;;;10.60;4.72;;;24.00;99.90;;;;;;5055907;28;20508;-41
2024/03/24 09:16:52;;;;;;;12.02;5.15;;;24.00;99.90;;;;;;5055683;28;20393;-41
2024/03/24 09:19:18;;;;;;;8.35;4.53;;;24.00;99.90;;;;;;5055660;28;20051;-41
2024/03/24 09:21:43;;;;;;;10.18;4.78;;;24.00;99.90;;;;;;5055789;28;20096;-42
2024/03/24 09:24:09;;;;;;;9.35;4.00;;;24.00;99.90;;;;;;5055694;28;20018;-42
2024/03/24 09:26:36;;;;;;;8.55;4.07;;;24.00;99.90;;;;;;5055970;28;20032;-42
2024/03/24 09:29:02;;;;;;;8.20;3.67;;;24.00;99.90;;;;;;5037825;28;20025;-41
2024/03/24 09:31:27;;;;;;;11.20;4.75;;;24.00;99.90;;;;;;5055675;28;20044;-42
2024/03/24 09:33:54;;;;;;;8.98;4.47;;;24.00;99.90;;;;;;5037751;28;20485;-42
2024/03/24 09:36:19;;;;;;;11.77;3.90;;;24.00;99.90;;;;;;5055433;28;20029;-41
2024/03/24 09:38:45;;;;;;;10.15;4.60;;;24.00;99.90;;;;;;5037046;28;20515;-42
2024/03/24 09:41:11;;;;;;;8.32;3.88;;;24.00;99.90;;;;;;5037601;28;20559;-41
2024/03/24 09:43:37;;;;;;;10.55;4.72;;;24.00;99.90;;;;;;5055527;28;20052;-42
2024/03/24 09:46:03;;;;;;;8.43;4.10;;;24.00;99.90;;;;;;5055363;28;20052;-43
2024/03/24 09:48:32;;;;;;;7.47;4.07;;;24.00;99.90;;;;;;5055205;28;20025;-40
2024/03/24 09:50:59;;;;;;;10.57;4.35;;;24.00;99.90;;;;;;5037390;28;20040;-41
2024/03/24 09:53:26;;;;;;;;;;;24.00;99.90;;;;;;5055698;28;20025;-41
2024/03/24 09:55:54;;;;;;;8.60;4.18;;;24.00;99.90;;;;;;5055319;28;19911;-42
2024/03/24 09:58:21;;;;;;;7.28;4.05;;;24.00;99.90;;;;;;5054997;28;20029;-41
2024/03/24 10:00:47;;;;;;;8.13;3.50;;;24.00;99.90;;;;;;5055075;28;20036;-41
2024/03/24 10:03:13;;;;;;;13.90;5.18;;;24.00;99.90;;;;;;5037197;28;20381;-41
2024/03/24 10:05:40;;;;;;;10.48;4.10;;;24.00;99.90;;;;;;5037022;28;20025;-42
2024/03/24 10:08:06;;;;;;;7.35;3.65;;;24.00;99.90;;;;;;5054823;28;20108;-42
2024/03/24 10:10:32;;;;;;;10.98;4.47;;;24.00;99.90;;;;;;5037026;28;20107;-41
2024/03/24 10:12:57;;;;;;;8.85;4.07;;;24.00;99.90;;;;;;5054746;28;20124;-41
2024/03/24 10:15:26;;;;;;;8.65;4.05;;;24.00;99.90;;;;;;5054630;28;20029;-43
2024/03/24 10:18:11;;;;;;;8.48;3.80;;;24.00;99.90;;;;;;5054832;28;20052;-44
2024/03/24 10:20:38;;;;;;;8.02;3.97;;;24.00;99.90;;;;;;5054717;28;20032;-42
2024/03/24 10:23:04;;;;;;;8.07;4.03;;;24.00;99.90;;;;;;5054790;28;20025;-43
2024/03/24 10:25:31;;;;;;;6.47;3.65;;;24.00;99.90;;;;;;5054626;28;20050;-43
2024/03/24 10:27:59;;;;;;;7.80;4.10;;;24.00;99.90;;;;;;5054387;28;20025;-42
2024/03/24 10:30:25;;;;;;;12.55;4.72;;;24.10;99.90;;;;;;5036628;28;20472;-43
2024/03/24 10:32:51;;;;;;;8.13;3.25;;;24.10;99.90;;;;;;5054496;28;20040;-42
2024/03/24 10:35:18;;;;;;;9.00;3.40;;;24.10;99.90;;;;;;5054552;28;20017;-43
2024/03/24 10:37:45;;;;;;;7.70;3.78;;;24.10;99.90;;;;;;5054115;28;20476;-43
2024/03/24 10:40:14;;;;;;;7.55;3.90;;;24.10;99.90;;;;;;5054014;28;20053;-42
2024/03/24 10:42:46;;;;;;;9.10;3.38;;;24.10;99.90;;;;;;5054218;28;20100;-42
2024/03/24 10:45:14;;;;;;;7.53;3.28;;;24.10;99.90;;;;;;5036314;28;20494;-42
2024/03/24 10:47:42;;;;;;;7.80;3.13;;;24.10;99.90;;;;;;5036218;28;20028;-42
2024/03/24 10:50:13;;;;;;;10.48;3.65;;;24.10;99.90;;;;;;5053438;28;20040;-43
2024/03/24 10:52:44;;;;;;;8.35;3.88;;;24.10;99.90;;;;;;5054053;28;20025;-42
2024/03/24 10:55:10;;;;;;;8.52;4.13;;;24.10;99.90;;;;;;5036815;28;20055;-42
2024/03/24 10:57:42;;;;;;;7.60;3.40;;;24.10;99.90;;;;;;5036221;28;20124;-43
2024/03/24 11:00:13;;;;;;;8.50;4.20;;;24.10;99.90;;;;;;5054006;28;20036;-42
2024/03/24 11:02:41;;;;;;;10.52;4.13;;;24.10;99.90;;;;;;5053879;28;20376;-42
2024/03/24 11:05:07;;;;;;;;;;;24.10;99.90;;;;;;5054139;28;20526;-43
2024/03/24 11:07:37;;;;;;;8.25;3.25;;;24.10;99.90;;;;;;5053715;28;19987;-42
2024/03/24 11:10:04;;;;;;;8.90;3.97;;;24.10;99.90;;;;;;5053630;28;20488;-42
2024/03/24 11:12:32;;;;;;;9.10;3.85;;;24.10;99.90;;;;;;5053559;28;20025;-42
2024/03/24 11:14:59;;;;;;;7.70;4.03;;;24.10;99.90;;;;;;5053570;28;20033;-42
2024/03/24 11:17:24;;;;;;;8.45;4.18;;;24.10;99.90;;;;;;5053768;28;20021;-43
2024/03/24 11:19:51;;;;;;;9.13;4.20;;;24.10;99.90;;;;;;5053432;28;20040;-42
2024/03/24 11:22:36;;;;;;;6.55;3.33;;;24.10;99.90;;;;;;5035640;28;20025;-42
2024/03/24 11:25:06;;;;;;;8.65;4.30;;;24.10;99.90;;;;;;5035731;28;20028;-42
2024/03/24 11:27:41;;;;;;;8.40;3.70;;;24.10;99.90;;;;;;5053573;28;20025;-42
2024/03/24 11:30:14;;;;;;;9.18;4.20;;;24.10;99.90;;;;;;5035516;28;20020;-42
2024/03/24 11:33:00;;;;;;;6.80;3.75;;;24.10;99.90;;;;;;5053452;28;20025;-42
2024/03/24 11:35:30;;;;;;;9.73;4.25;;;24.10;99.90;;;;;;5053347;28;20017;-42
2024/03/24 11:37:57;;;;;;;8.13;4.13;;;24.10;99.90;;;;;;5053358;28;20021;-42
2024/03/24 11:40:28;;;;;;;10.43;4.07;;;24.10;99.90;;;;;;5035120;28;20045;-42
2024/03/24 11:42:56;;;;;;;6.88;3.33;;;24.10;99.90;;;;;;5035294;28;20025;-43
2024/03/24 11:45:29;;;;;;;10.50;3.80;;;24.10;99.90;;;;;;5053188;28;20028;-43
2024/03/24 11:48:30;;;;;;;7.45;3.83;;;24.00;99.90;;;;;;5035510;28;20017;-43
2024/03/24 11:51:01;;;;;;;11.48;4.22;;;24.10;99.90;;;;;;5025949;28;20044;-42
2024/03/24 11:53:29;;;;;;;10.30;4.05;;;24.10;99.90;;;;;;5053234;28;20021;-42
2024/03/24 11:55:59;;;;;;;11.75;4.25;;;24.10;99.90;;;;;;5035250;28;20044;-42
2024/03/24 11:58:26;;;;;;;10.52;3.80;;;24.10;99.90;;;;;;5053014;28;20065;-43
2024/03/24 12:00:52;;;;;;;8.25;3.47;;;24.10;99.90;;;;;;5053673;28;20096;-42
2024/03/24 12:03:18;;;;;;;10.07;3.97;;;24.10;99.90;;;;;;5057136;28;20021;-42
2024/03/24 12:05:45;;;;;;;11.85;5.25;;;24.10;99.90;;;;;;5057155;28;20071;-44
2024/03/24 12:08:12;;;;;;;12.75;4.40;;;24.10;99.90;;;;;;5057278;28;20044;-43
2024/03/24 12:10:39;;;;;;;12.02;4.50;;;24.10;99.90;;;;;;5057346;28;20052;-42
2024/03/24 12:13:05;;;;;;;9.30;3.90;;;24.10;99.90;;;;;;5056930;28;20048;-43
2024/03/24 12:15:31;;;;;;;13.35;4.57;;;24.10;99.90;;;;;;5057006;28;20096;-44
2024/03/24 12:18:10;;;;;;;13.20;4.55;;;24.10;99.90;;;;;;5056914;28;20041;-43
2024/03/24 12:20:36;;;;;;;9.07;3.88;;;24.10;99.90;;;;;;5056754;28;20037;-43
2024/03/24 12:23:03;;;;;;;11.83;3.77;;;24.10;99.90;;;;;;5056829;28;20024;-43
2024/03/24 12:25:30;;;;;;;9.90;3.67;;;24.10;99.90;;;;;;5056849;28;20543;-43
2024/03/24 12:27:56;;;;;;;10.18;3.97;;;24.10;99.90;;;;;;5056755;28;20040;-43
2024/03/24 12:30:23;;;;;;;7.40;3.97;;;24.10;99.90;;;;;;5056702;28;20016;-43
2024/03/24 12:32:50;;;;;;;7.40;3.40;;;24.10;99.90;;;;;;5056616;28;20025;-43
2024/03/24 12:35:20;;;;;;;11.65;4.47;;;24.10;99.90;;;;;;5038602;28;20032;-44
2024/03/24 12:37:50;;;;;;;10.05;3.83;;;24.10;99.90;;;;;;5056368;28;20032;-42
2024/03/24 12:40:21;;;;;;;8.43;4.20;;;24.10;99.90;;;;;;5056113;28;20063;-42
2024/03/24 12:42:48;;;;;;;8.82;3.75;;;24.10;99.90;;;;;;5056380;28;20025;-42
2024/03/24 12:45:17;;;;;;;6.57;3.27;;;24.10;99.90;;;;;;5056204;28;20499;-42
2024/03/24 12:47:44;;;;;;;10.40;4.68;;;24.10;99.90;;;;;;5056185;28;20722;-42